Time;durP1;ratioP1;P1;durP2;ratioP2;P2;SDS_P1;SDS_P2;PMS_P1;PMS_P2;Temp;Humidity;BMP_temperature;BMP_pressure;BME280_temperature;BME280_humidity;BME280_pressure;Samples;Min_cycle;Max_cycle;Signal;HPM_P1;HPM_P2
2023/09/24 00:01:00;;;;;;;6.40;3.30;;;13.30;99.90;;;;;;5059275;28;20794;-66
2023/09/24 00:03:26;;;;;;;10.10;3.23;;;13.30;99.90;;;;;;5075632;28;20556;-65
2023/09/24 00:05:54;;;;;;;9.67;3.60;;;13.30;99.90;;;;;;5076809;28;20044;-66
2023/09/24 00:08:21;;;;;;;7.27;2.60;;;13.20;99.90;;;;;;5076919;28;20044;-66
2023/09/24 00:10:52;;;;;;;8.27;3.47;;;13.20;99.90;;;;;;5077221;28;20106;-66
2023/09/24 00:13:21;;;;;;;10.30;3.10;;;13.20;99.90;;;;;;5076952;28;20277;-66
2023/09/24 00:15:49;;;;;;;8.60;3.50;;;13.20;99.90;;;;;;5076808;28;20048;-66
2023/09/24 00:18:17;;;;;;;8.07;3.27;;;13.20;99.90;;;;;;5075581;28;20384;-66
2023/09/24 00:20:43;;;;;;;8.80;3.07;;;13.10;99.90;;;;;;5076719;28;20435;-66
2023/09/24 00:23:10;;;;;;;9.13;3.43;;;13.10;99.90;;;;;;5077210;28;20552;-66
2023/09/24 00:25:39;;;;;;;8.10;2.90;;;13.10;99.90;;;;;;5075746;28;20631;-65
2023/09/24 00:28:05;;;;;;;7.90;2.57;;;13.10;99.90;;;;;;5077067;28;20045;-66
2023/09/24 00:30:34;;;;;;;7.07;3.10;;;13.00;99.90;;;;;;5075880;28;20452;-66
2023/09/24 00:33:00;;;;;;;7.27;2.63;;;13.00;99.90;;;;;;5076575;28;20045;-66
2023/09/24 00:35:31;;;;;;;7.43;2.80;;;13.00;99.90;;;;;;5076447;28;20402;-66
2023/09/24 00:37:57;;;;;;;7.53;3.50;;;13.00;99.90;;;;;;5076109;28;20123;-66
2023/09/24 00:40:23;;;;;;;8.07;3.20;;;12.90;99.90;;;;;;5076891;28;20364;-65
2023/09/24 00:42:49;;;;;;;9.13;3.57;;;12.90;99.90;;;;;;5076004;28;20059;-66
2023/09/24 00:45:15;;;;;;;7.93;3.10;;;12.90;99.90;;;;;;5076371;28;20333;-66
2023/09/24 00:47:47;;;;;;;7.50;2.43;;;12.80;99.90;;;;;;5076807;28;20278;-66
2023/09/24 00:50:13;;;;;;;9.00;2.47;;;12.80;99.90;;;;;;5059143;28;20087;-66
2023/09/24 00:52:44;;;;;;;6.70;2.30;;;12.80;99.90;;;;;;5076218;28;20283;-66
2023/09/24 00:55:11;;;;;;;6.80;2.93;;;12.80;99.90;;;;;;5076212;28;20281;-65
2023/09/24 00:57:37;;;;;;;11.10;2.70;;;12.70;99.90;;;;;;5075399;28;20778;-65
2023/09/24 01:00:11;;;;;;;10.87;2.87;;;12.70;99.90;;;;;;5076872;28;20279;-66
2023/09/24 01:02:39;;;;;;;6.17;2.20;;;12.70;99.90;;;;;;5076672;28;20389;-66
2023/09/24 01:05:05;;;;;;;9.20;2.83;;;12.70;99.90;;;;;;5075966;28;20290;-66
2023/09/24 01:07:31;;;;;;;8.30;2.67;;;12.80;99.90;;;;;;5074959;28;20330;-66
2023/09/24 01:09:57;;;;;;;7.97;2.50;;;12.80;99.90;;;;;;5073493;28;20339;-66
2023/09/24 01:12:25;;;;;;;7.97;2.33;;;12.80;99.90;;;;;;5074756;28;20067;-66
2023/09/24 01:14:53;;;;;;;5.87;2.07;;;12.70;99.90;;;;;;5074564;28;20365;-66
2023/09/24 01:17:23;;;;;;;8.47;2.33;;;12.70;99.90;;;;;;5074601;28;20369;-66
2023/09/24 01:19:52;;;;;;;7.47;2.03;;;12.80;99.90;;;;;;5074616;28;20312;-66
2023/09/24 01:22:18;;;;;;;7.43;2.23;;;12.70;99.90;;;;;;5075004;28;20416;-65
2023/09/24 01:24:43;;;;;;;4.90;2.00;;;12.70;99.90;;;;;;5074937;28;20742;-66
2023/09/24 01:27:09;;;;;;;8.07;2.30;;;12.70;99.90;;;;;;5074080;28;20079;-66
2023/09/24 01:29:36;;;;;;;7.43;2.33;;;12.70;99.90;;;;;;5074341;28;20051;-66
2023/09/24 01:32:04;;;;;;;8.33;2.33;;;12.70;99.90;;;;;;5073698;28;20151;-66
2023/09/24 01:34:30;;;;;;;9.13;2.60;;;12.70;99.90;;;;;;5074417;28;20278;-66
2023/09/24 01:36:56;;;;;;;6.77;2.40;;;12.70;99.90;;;;;;5074307;28;20781;-66
2023/09/24 01:39:25;;;;;;;7.00;2.10;;;12.60;99.90;;;;;;5072967;28;20047;-66
2023/09/24 01:41:51;;;;;;;7.33;2.20;;;12.60;99.90;;;;;;5074708;28;20052;-66
2023/09/24 01:44:21;;;;;;;8.40;2.27;;;12.70;99.90;;;;;;5074134;28;20322;-66
2023/09/24 01:46:47;;;;;;;9.03;2.90;;;12.70;99.90;;;;;;5074205;28;20294;-65
2023/09/24 01:49:13;;;;;;;8.33;2.73;;;12.60;99.90;;;;;;5074073;28;20305;-66
2023/09/24 01:51:39;;;;;;;7.60;2.40;;;12.70;99.90;;;;;;5074209;28;20279;-66
2023/09/24 01:54:05;;;;;;;8.83;2.63;;;12.70;99.90;;;;;;5073064;28;20044;-66
2023/09/24 01:56:31;;;;;;;5.13;2.17;;;12.70;99.90;;;;;;5074035;28;20052;-65
2023/09/24 01:58:59;;;;;;;7.07;2.50;;;12.70;99.90;;;;;;5073923;28;20282;-66
2023/09/24 02:01:25;;;;;;;10.63;2.77;;;12.70;99.90;;;;;;5072987;28;20049;-66
2023/09/24 02:03:50;;;;;;;7.97;2.80;;;12.70;99.90;;;;;;5072658;28;20283;-66
2023/09/24 02:06:16;;;;;;;7.00;3.03;;;12.70;99.90;;;;;;5073853;28;20048;-66
2023/09/24 02:08:42;;;;;;;9.00;2.97;;;12.70;99.90;;;;;;5035929;28;1102641;-66
2023/09/24 02:11:07;;;;;;;9.27;3.20;;;12.70;99.90;;;;;;5074358;28;20045;-66
2023/09/24 02:13:33;;;;;;;7.33;3.30;;;12.70;99.90;;;;;;5075167;28;20106;-66
2023/09/24 02:16:00;;;;;;;7.17;3.40;;;12.70;99.90;;;;;;5074498;28;20040;-66
2023/09/24 02:18:32;;;;;;;8.30;3.63;;;12.70;99.90;;;;;;5075058;28;20412;-66
2023/09/24 02:20:59;;;;;;;7.83;3.33;;;12.70;99.90;;;;;;5074537;28;20279;-66
2023/09/24 02:23:25;;;;;;;7.10;3.20;;;12.80;99.90;;;;;;5074413;28;20283;-66
2023/09/24 02:25:51;;;;;;;6.70;2.80;;;12.70;99.90;;;;;;5074668;28;20287;-66
2023/09/24 02:28:17;;;;;;;6.03;3.07;;;12.70;99.90;;;;;;5074765;28;20727;-66
2023/09/24 02:30:43;;;;;;;9.17;3.80;;;12.80;99.90;;;;;;5074280;28;20056;-66
2023/09/24 02:33:09;;;;;;;8.30;3.50;;;12.80;99.90;;;;;;5074404;28;20279;-66
2023/09/24 02:35:36;;;;;;;8.83;3.43;;;12.80;99.90;;;;;;5074141;28;20048;-66
2023/09/24 02:38:02;;;;;;;7.10;3.67;;;12.80;99.90;;;;;;5074172;28;20048;-66
2023/09/24 02:40:28;;;;;;;9.17;3.77;;;12.80;99.90;;;;;;5072901;28;20275;-66
2023/09/24 02:42:56;;;;;;;12.93;3.93;;;12.80;99.90;;;;;;5074044;28;20623;-66
2023/09/24 02:45:22;;;;;;;8.90;3.80;;;12.80;99.90;;;;;;5073972;28;20044;-66
2023/09/24 02:47:51;;;;;;;8.73;3.70;;;12.80;99.90;;;;;;5073993;28;20275;-66
2023/09/24 02:50:22;;;;;;;10.20;3.60;;;12.80;99.90;;;;;;5073827;28;20299;-66
2023/09/24 02:52:48;;;;;;;6.83;3.63;;;12.90;99.90;;;;;;5073988;28;20275;-66
2023/09/24 02:55:15;;;;;;;8.50;3.87;;;12.90;99.90;;;;;;5073838;28;20747;-66
2023/09/24 02:57:43;;;;;;;8.77;4.17;;;12.90;99.90;;;;;;5073845;28;20631;-66
2023/09/24 03:00:17;;;;;;;8.60;4.30;;;12.90;99.90;;;;;;5073774;28;20279;-66
2023/09/24 03:02:44;;;;;;;6.70;4.15;;;12.90;99.90;;;;;;5074342;28;20362;-66
2023/09/24 03:05:11;;;;;;;5.77;3.57;;;12.80;99.90;;;;;;5073698;28;20056;-66
2023/09/24 03:07:40;;;;;;;9.00;3.90;;;12.90;99.90;;;;;;5073791;28;20305;-65
2023/09/24 03:10:09;;;;;;;9.20;3.93;;;12.90;99.90;;;;;;5072309;28;20333;-66
2023/09/24 03:12:34;;;;;;;8.67;3.60;;;12.80;99.90;;;;;;5073914;28;20283;-66
2023/09/24 03:15:01;;;;;;;8.23;4.30;;;12.80;99.90;;;;;;5074076;28;20453;-65
2023/09/24 03:17:27;;;;;;;8.13;4.17;;;12.80;99.90;;;;;;5073557;28;20173;-66
2023/09/24 03:19:53;;;;;;;8.57;4.20;;;12.80;99.90;;;;;;5073551;28;20370;-65
2023/09/24 03:22:20;;;;;;;8.53;4.47;;;12.80;99.90;;;;;;5074048;28;20366;-66
2023/09/24 03:24:47;;;;;;;8.93;4.43;;;12.80;99.90;;;;;;5073558;28;20048;-66
2023/09/24 03:27:14;;;;;;;11.20;4.53;;;12.70;99.90;;;;;;5073546;28;20630;-66
2023/09/24 03:29:41;;;;;;;6.90;4.40;;;12.70;99.90;;;;;;5073972;28;20302;-66
2023/09/24 03:32:07;;;;;;;10.50;4.50;;;12.70;99.90;;;;;;5073992;28;20291;-66
2023/09/24 03:34:34;;;;;;;8.80;4.60;;;12.60;99.90;;;;;;5073428;28;20305;-66
2023/09/24 03:37:00;;;;;;;11.10;5.13;;;12.60;99.90;;;;;;5074282;28;20393;-66
2023/09/24 03:39:25;;;;;;;12.47;4.90;;;12.60;99.90;;;;;;5073340;28;20275;-66
2023/09/24 03:41:51;;;;;;;8.17;4.00;;;12.60;99.90;;;;;;5073319;28;20049;-65
2023/09/24 03:44:17;;;;;;;9.20;4.50;;;12.50;99.90;;;;;;5073346;28;20128;-66
2023/09/24 03:46:43;;;;;;;7.73;4.43;;;12.50;99.90;;;;;;5073355;28;20052;-66
2023/09/24 03:49:11;;;;;;;8.10;5.17;;;12.50;99.90;;;;;;5072561;28;20398;-66
2023/09/24 03:51:37;;;;;;;11.53;4.83;;;12.40;99.90;;;;;;5073285;28;20083;-66
2023/09/24 03:54:03;;;;;;;11.93;5.93;;;12.40;99.90;;;;;;5039765;28;20322;-66
2023/09/24 03:56:28;;;;;;;8.83;5.00;;;12.40;99.90;;;;;;5073180;28;20048;-66
2023/09/24 03:58:54;;;;;;;9.33;5.20;;;12.40;99.90;;;;;;5073194;28;20285;-66
2023/09/24 04:01:20;;;;;;;12.53;5.07;;;12.30;99.90;;;;;;5073133;28;20128;-66
2023/09/24 04:03:46;;;;;;;11.70;5.27;;;12.30;99.90;;;;;;5073669;28;20350;-66
2023/09/24 04:06:12;;;;;;;10.70;5.50;;;12.30;99.90;;;;;;5073304;28;20052;-66
2023/09/24 04:08:38;;;;;;;8.67;5.40;;;12.40;99.90;;;;;;5073126;28;20103;-65
2023/09/24 04:11:10;;;;;;;10.30;4.87;;;12.30;99.90;;;;;;5072975;28;20048;-65
2023/09/24 04:13:38;;;;;;;12.73;5.70;;;12.40;99.90;;;;;;5072959;28;20295;-66
2023/09/24 04:16:14;;;;;;;12.53;5.77;;;12.40;99.90;;;;;;5073744;28;20283;-65
2023/09/24 04:18:41;;;;;;;12.67;6.17;;;12.40;99.90;;;;;;5072876;28;20317;-65
2023/09/24 04:21:17;;;;;;;12.87;6.23;;;12.40;99.90;;;;;;5072945;28;20322;-65
2023/09/24 04:23:44;;;;;;;11.43;5.80;;;12.40;99.90;;;;;;5072966;28;20347;-65
2023/09/24 04:26:22;;;;;;;11.37;6.63;;;12.40;99.90;;;;;;5073170;28;20275;-65
2023/09/24 04:28:54;;;;;;;12.17;6.63;;;12.40;99.90;;;;;;5073098;28;20303;-66
2023/09/24 04:31:20;;;;;;;10.13;5.67;;;12.40;99.90;;;;;;5072953;28;20282;-65
2023/09/24 04:33:48;;;;;;;11.60;6.27;;;12.50;99.90;;;;;;5076177;28;20290;-66
2023/09/24 04:36:14;;;;;;;11.47;5.80;;;12.50;99.90;;;;;;5076451;28;20283;-66
2023/09/24 04:38:41;;;;;;;12.27;5.00;;;12.50;99.90;;;;;;5076424;28;20411;-66
2023/09/24 04:41:07;;;;;;;11.33;6.10;;;12.50;99.90;;;;;;5076398;28;20293;-65
2023/09/24 04:43:35;;;;;;;11.83;5.27;;;12.50;99.90;;;;;;5077134;28;20287;-66
2023/09/24 04:46:05;;;;;;;10.23;5.67;;;12.50;99.90;;;;;;5076356;28;20049;-65
2023/09/24 04:48:33;;;;;;;9.03;5.10;;;12.50;99.90;;;;;;5076181;28;20301;-66
2023/09/24 04:50:58;;;;;;;9.17;5.60;;;12.50;99.90;;;;;;5077358;28;20285;-66
2023/09/24 04:53:24;;;;;;;9.57;5.00;;;12.40;99.90;;;;;;5076740;28;20693;-66
2023/09/24 04:55:50;;;;;;;9.20;5.53;;;12.40;99.90;;;;;;5076223;28;20049;-66
2023/09/24 04:58:15;;;;;;;10.63;5.47;;;12.40;99.90;;;;;;5076103;28;20428;-66
2023/09/24 05:00:41;;;;;;;10.60;5.00;;;12.30;99.90;;;;;;5076647;28;20056;-66
2023/09/24 05:03:07;;;;;;;13.17;5.30;;;12.30;99.90;;;;;;5076072;28;20488;-66
2023/09/24 05:05:33;;;;;;;8.57;5.70;;;12.30;99.90;;;;;;5075192;28;20052;-65
2023/09/24 05:07:59;;;;;;;10.20;5.30;;;12.30;99.90;;;;;;5075858;28;20067;-65
2023/09/24 05:10:25;;;;;;;8.53;4.70;;;12.20;99.90;;;;;;5075776;28;20048;-66
2023/09/24 05:12:51;;;;;;;9.27;5.50;;;12.20;99.90;;;;;;5075870;28;20283;-66
2023/09/24 05:15:17;;;;;;;8.70;5.17;;;12.20;99.90;;;;;;5076107;28;20087;-67
2023/09/24 05:17:42;;;;;;;9.43;5.97;;;12.10;99.90;;;;;;5075788;28;20473;-66
2023/09/24 05:20:09;;;;;;;11.33;5.93;;;12.10;99.90;;;;;;5075968;28;20102;-65
2023/09/24 05:22:35;;;;;;;13.03;5.67;;;12.10;99.90;;;;;;5075677;28;20056;-66
2023/09/24 05:25:00;;;;;;;9.80;5.30;;;12.10;99.90;;;;;;5075646;28;20331;-66
2023/09/24 05:27:29;;;;;;;9.67;5.27;;;12.00;99.90;;;;;;5075537;28;20366;-66
2023/09/24 05:29:54;;;;;;;10.97;6.10;;;12.00;99.90;;;;;;5076245;28;20044;-66
2023/09/24 05:32:20;;;;;;;13.97;5.93;;;12.00;99.90;;;;;;5075465;28;20290;-66
2023/09/24 05:34:52;;;;;;;12.07;5.90;;;12.00;99.90;;;;;;5075413;28;20049;-66
2023/09/24 05:37:18;;;;;;;14.77;6.43;;;12.00;99.90;;;;;;5075943;28;20389;-66
2023/09/24 05:39:43;;;;;;;17.40;6.50;;;12.00;99.90;;;;;;5076134;28;20283;-65
2023/09/24 05:42:09;;;;;;;11.40;6.17;;;12.00;99.90;;;;;;5075830;28;20232;-65
2023/09/24 05:44:35;;;;;;;11.63;6.87;;;11.90;99.90;;;;;;5074084;28;20048;-66
2023/09/24 05:47:01;;;;;;;15.30;6.50;;;12.00;99.90;;;;;;5074251;28;20051;-65
2023/09/24 05:49:27;;;;;;;11.10;6.03;;;12.00;99.90;;;;;;5074115;28;20465;-66
2023/09/24 05:51:52;;;;;;;14.10;7.03;;;12.00;99.90;;;;;;5075676;28;20362;-66
2023/09/24 05:54:18;;;;;;;12.77;6.23;;;12.00;99.90;;;;;;5075124;28;20048;-65
2023/09/24 05:56:44;;;;;;;13.97;6.40;;;12.10;99.90;;;;;;5073817;28;20117;-66
2023/09/24 05:59:09;;;;;;;10.70;6.20;;;12.10;99.90;;;;;;5074992;28;20044;-66
2023/09/24 06:01:35;;;;;;;12.60;6.27;;;12.10;99.90;;;;;;5075406;28;20041;-66
2023/09/24 06:04:01;;;;;;;8.37;5.00;;;12.20;99.90;;;;;;5075356;28;20088;-66
2023/09/24 06:06:26;;;;;;;14.10;6.17;;;12.20;99.90;;;;;;5075060;28;20098;-66
2023/09/24 06:08:53;;;;;;;13.70;6.23;;;12.20;99.90;;;;;;5075209;28;20099;-66
2023/09/24 06:11:19;;;;;;;8.27;5.27;;;12.20;99.90;;;;;;5075531;28;20048;-66
2023/09/24 06:13:44;;;;;;;8.53;5.60;;;12.20;99.90;;;;;;5075397;28;20892;-66
2023/09/24 06:16:10;;;;;;;8.97;5.50;;;12.30;99.90;;;;;;5075069;28;20045;-66
2023/09/24 06:18:36;;;;;;;12.73;6.20;;;12.30;99.90;;;;;;5073522;28;20385;-65
2023/09/24 06:21:04;;;;;;;12.97;5.90;;;12.30;99.90;;;;;;5074375;28;20481;-66
2023/09/24 06:23:31;;;;;;;11.97;6.23;;;12.40;99.90;;;;;;5074630;28;20044;-66
2023/09/24 06:25:58;;;;;;;13.67;6.30;;;12.40;99.90;;;;;;5075029;28;20340;-66
2023/09/24 06:28:27;;;;;;;10.90;6.23;;;12.50;99.90;;;;;;5074214;28;20377;-66
2023/09/24 06:31:03;;;;;;;12.07;6.50;;;12.50;99.90;;;;;;5074207;28;20278;-65
2023/09/24 06:33:29;;;;;;;13.00;5.50;;;12.60;99.90;;;;;;5075108;28;20328;-66
2023/09/24 06:35:55;;;;;;;12.63;6.27;;;12.60;99.90;;;;;;5074186;28;20322;-66
2023/09/24 06:38:21;;;;;;;12.93;6.40;;;12.70;99.90;;;;;;5074084;28;20376;-66
2023/09/24 06:40:58;;;;;;;15.83;6.23;;;12.80;99.90;;;;;;5074103;28;20310;-66
2023/09/24 06:43:27;;;;;;;14.00;6.00;;;12.80;99.90;;;;;;5074172;28;20080;-66
2023/09/24 06:45:54;;;;;;;11.83;6.43;;;12.90;99.90;;;;;;5074511;28;20746;-66
2023/09/24 06:48:21;;;;;;;13.47;5.53;;;12.90;99.90;;;;;;5074577;28;20287;-66
2023/09/24 06:50:47;;;;;;;16.47;7.03;;;12.90;99.90;;;;;;5073939;28;20634;-66
2023/09/24 06:53:12;;;;;;;14.20;5.87;;;13.00;99.90;;;;;;5074766;28;20290;-66
2023/09/24 06:55:41;;;;;;;13.50;6.10;;;13.10;99.90;;;;;;5073839;28;20384;-66
2023/09/24 06:58:07;;;;;;;11.40;5.33;;;13.40;99.90;;;;;;5074455;28;20391;-66
2023/09/24 07:00:32;;;;;;;15.17;6.07;;;13.90;99.90;;;;;;5073833;28;20366;-66
2023/09/24 07:02:59;;;;;;;15.73;6.53;;;14.40;99.90;;;;;;5073713;28;20048;-66
2023/09/24 07:05:26;;;;;;;11.00;5.90;;;15.00;99.90;;;;;;5073791;28;20051;-66
2023/09/24 07:07:52;;;;;;;10.37;5.33;;;15.70;99.90;;;;;;5073601;28;20781;-65
2023/09/24 07:10:22;;;;;;;11.83;5.30;;;16.40;99.90;;;;;;5074072;28;20127;-65
2023/09/24 07:12:48;;;;;;;11.03;5.07;;;17.40;99.90;;;;;;5072617;28;20049;-66
2023/09/24 07:15:13;;;;;;;12.43;5.87;;;18.30;99.90;;;;;;5073615;28;20051;-66
2023/09/24 07:17:39;;;;;;;13.77;4.90;;;19.10;99.90;;;;;;5073639;28;20048;-66
2023/09/24 07:20:07;;;;;;;9.53;5.27;;;19.90;99.90;;;;;;5073584;28;20384;-66
2023/09/24 07:22:33;;;;;;;12.30;5.83;;;20.30;99.90;;;;;;5074380;28;20346;-66
2023/09/24 07:24:58;;;;;;;8.90;4.90;;;20.30;99.90;;;;;;5074109;28;20052;-65
2023/09/24 07:27:24;;;;;;;10.83;5.20;;;19.90;99.90;;;;;;5056204;28;20480;-66
2023/09/24 07:29:50;;;;;;;11.40;4.77;;;19.40;99.90;;;;;;5073446;28;20044;-66
2023/09/24 07:32:16;;;;;;;11.33;5.37;;;18.80;99.90;;;;;;5074238;28;20055;-66
2023/09/24 07:34:42;;;;;;;13.63;5.67;;;18.20;99.90;;;;;;5073402;28;20049;-66
2023/09/24 07:37:08;;;;;;;9.70;4.73;;;17.80;99.90;;;;;;5073750;28;20457;-66
2023/09/24 07:39:37;;;;;;;10.30;5.17;;;17.40;99.90;;;;;;5073363;28;20083;-66
2023/09/24 07:42:03;;;;;;;12.00;5.47;;;17.20;99.90;;;;;;5073385;28;20048;-66
2023/09/24 07:44:28;;;;;;;10.80;5.30;;;17.00;99.90;;;;;;5073869;28;20044;-65
2023/09/24 07:46:54;;;;;;;8.93;4.93;;;16.90;99.90;;;;;;5073293;28;20051;-66
2023/09/24 07:49:20;;;;;;;10.63;5.70;;;16.90;99.90;;;;;;5071677;28;20515;-65
2023/09/24 07:51:46;;;;;;;8.40;5.23;;;16.80;99.90;;;;;;5073210;28;20052;-65
2023/09/24 07:54:13;;;;;;;8.73;4.30;;;16.70;99.90;;;;;;5073213;28;20047;-66
2023/09/24 07:56:41;;;;;;;11.77;4.93;;;16.60;99.90;;;;;;5073700;28;20064;-66
2023/09/24 07:59:07;;;;;;;9.57;4.60;;;16.60;99.90;;;;;;5073533;28;20392;-65
2023/09/24 08:01:33;;;;;;;10.77;5.00;;;16.70;99.90;;;;;;5073961;28;20049;-65
2023/09/24 08:03:59;;;;;;;8.80;5.00;;;16.70;99.90;;;;;;5073074;28;20508;-65
2023/09/24 08:06:28;;;;;;;7.50;4.67;;;16.70;99.90;;;;;;5073939;28;20048;-65
2023/09/24 08:08:54;;;;;;;9.40;4.97;;;16.70;99.90;;;;;;5075977;28;20135;-65
2023/09/24 08:11:20;;;;;;;12.67;4.90;;;16.60;99.90;;;;;;5077016;28;20106;-65
2023/09/24 08:13:46;;;;;;;9.10;5.07;;;16.60;99.90;;;;;;5076027;28;20056;-66
2023/09/24 08:16:12;;;;;;;9.00;4.93;;;16.50;99.90;;;;;;5076805;28;20049;-66
2023/09/24 08:18:38;;;;;;;8.50;4.67;;;16.30;99.90;;;;;;5077546;28;20080;-65
2023/09/24 08:21:04;;;;;;;8.40;4.27;;;16.30;99.90;;;;;;5077136;28;20464;-65
2023/09/24 08:23:29;;;;;;;9.00;4.90;;;16.10;99.90;;;;;;5077251;28;20045;-65
2023/09/24 08:25:55;;;;;;;9.90;4.83;;;16.10;99.90;;;;;;5076892;28;20046;-65
2023/09/24 08:28:20;;;;;;;11.23;4.83;;;16.00;99.90;;;;;;5076534;28;20052;-65
2023/09/24 08:30:46;;;;;;;8.13;4.83;;;16.00;99.90;;;;;;5076520;28;20045;-66
2023/09/24 08:33:12;;;;;;;7.87;4.23;;;15.90;99.90;;;;;;5077917;28;20124;-65
2023/09/24 08:35:42;;;;;;;9.13;4.47;;;15.90;99.90;;;;;;5076545;28;20397;-65
2023/09/24 08:38:09;;;;;;;11.90;5.00;;;15.90;99.90;;;;;;5076349;28;20056;-66
2023/09/24 08:40:35;;;;;;;10.70;4.37;;;16.00;99.90;;;;;;5076306;28;20036;-65
2023/09/24 08:43:08;;;;;;;10.30;4.30;;;16.00;99.90;;;;;;5077004;28;20048;-66
2023/09/24 08:45:34;;;;;;;10.03;4.47;;;16.00;99.90;;;;;;5076744;28;20123;-65
2023/09/24 08:48:01;;;;;;;9.80;3.90;;;15.90;99.90;;;;;;5076231;28;20137;-66
2023/09/24 08:50:27;;;;;;;10.37;3.90;;;15.90;99.90;;;;;;5076102;28;20538;-65
2023/09/24 08:52:54;;;;;;;11.83;4.63;;;15.90;99.90;;;;;;5076103;28;20052;-65
2023/09/24 08:55:20;;;;;;;10.83;4.50;;;15.90;99.90;;;;;;5076934;28;20040;-65
2023/09/24 08:57:46;;;;;;;9.33;4.67;;;15.90;99.90;;;;;;5075724;28;20127;-66
2023/09/24 09:00:14;;;;;;;12.07;4.93;;;16.00;99.90;;;;;;5075777;28;20485;-65
2023/09/24 09:02:41;;;;;;;11.27;4.23;;;16.00;99.90;;;;;;5076048;28;20048;-66
2023/09/24 09:05:18;;;;;;;10.23;3.90;;;16.00;99.90;;;;;;5074756;28;20049;-66
2023/09/24 09:08:02;;;;;;;9.17;3.43;;;16.10;99.90;;;;;;5076627;28;20060;-65
2023/09/24 09:10:29;;;;;;;11.10;4.03;;;16.10;99.90;;;;;;5076202;28;20128;-65
2023/09/24 09:13:09;;;;;;;9.57;3.43;;;16.10;99.90;;;;;;5076022;28;20081;-66
2023/09/24 09:15:37;;;;;;;9.03;3.60;;;16.20;99.90;;;;;;5075748;28;20044;-65
2023/09/24 09:18:03;;;;;;;9.03;3.33;;;16.20;99.90;;;;;;5075455;28;20425;-65
2023/09/24 09:20:46;;;;;;;9.63;3.33;;;16.20;99.90;;;;;;5075296;28;20481;-65
2023/09/24 09:23:15;;;;;;;9.00;3.50;;;16.20;99.90;;;;;;5074958;28;20500;-66
2023/09/24 09:25:52;;;;;;;7.77;4.03;;;16.20;99.90;;;;;;5075624;28;20061;-67
2023/09/24 09:28:26;;;;;;;10.13;3.67;;;16.30;99.90;;;;;;5074619;28;20084;-66
2023/09/24 09:30:59;;;;;;;9.27;3.20;;;16.30;99.90;;;;;;5076282;28;20113;-66
2023/09/24 09:33:35;;;;;;;9.67;3.97;;;16.30;99.90;;;;;;5074332;28;20048;-66
2023/09/24 09:36:02;;;;;;;8.50;3.47;;;16.30;99.90;;;;;;5075966;28;20051;-65
2023/09/24 09:38:28;;;;;;;8.83;3.53;;;16.30;99.90;;;;;;5074958;28;20496;-65
2023/09/24 09:40:56;;;;;;;13.10;3.83;;;16.30;99.90;;;;;;5075912;28;20123;-66
2023/09/24 09:43:23;;;;;;;10.13;3.20;;;16.30;99.90;;;;;;5074985;28;20523;-66
2023/09/24 09:45:52;;;;;;;8.37;3.30;;;16.30;99.90;;;;;;5075266;28;20059;-65
2023/09/24 09:48:27;;;;;;;9.30;3.23;;;16.30;99.90;;;;;;5075175;28;20485;-65
2023/09/24 09:50:53;;;;;;;;;;;16.30;99.90;;;;;;5075571;28;20087;-66
2023/09/24 09:53:21;;;;;;;10.10;3.40;;;16.30;99.90;;;;;;5075859;28;19921;-65
2023/09/24 09:55:50;;;;;;;6.67;2.93;;;16.40;99.90;;;;;;5074957;28;20052;-65
2023/09/24 09:58:16;;;;;;;9.30;2.77;;;16.40;99.90;;;;;;5074741;28;20050;-66
2023/09/24 10:00:42;;;;;;;11.83;3.13;;;16.50;99.90;;;;;;5075463;28;20076;-65
2023/09/24 10:03:10;;;;;;;6.87;2.77;;;16.50;99.90;;;;;;5073758;28;20080;-66
2023/09/24 10:05:36;;;;;;;8.97;2.80;;;16.50;99.90;;;;;;5074860;28;20048;-65
2023/09/24 10:08:37;;;;;;;8.80;2.70;;;16.60;99.90;;;;;;5075064;28;20056;-65
2023/09/24 10:11:06;;;;;;;8.67;3.40;;;16.60;99.90;;;;;;5074575;28;20127;-65
2023/09/24 10:13:44;;;;;;;7.50;2.93;;;16.60;99.90;;;;;;5074999;28;20048;-65
2023/09/24 10:16:25;;;;;;;7.80;3.37;;;16.70;99.90;;;;;;5074737;28;20045;-65
2023/09/24 10:18:55;;;;;;;10.93;2.83;;;16.70;99.90;;;;;;5074527;28;20048;-65
2023/09/24 10:21:32;;;;;;;10.40;2.97;;;16.80;99.90;;;;;;5074960;28;20048;-65
2023/09/24 10:24:13;;;;;;;10.03;2.80;;;16.80;99.90;;;;;;5074771;28;20049;-66
2023/09/24 10:26:54;;;;;;;9.27;2.50;;;16.80;99.90;;;;;;5074927;28;20377;-65
2023/09/24 10:29:40;;;;;;;7.73;2.60;;;16.80;99.90;;;;;;5074825;28;20056;-65
2023/09/24 10:32:09;;;;;;;10.77;3.60;;;16.80;99.90;;;;;;5074551;28;20357;-65
2023/09/24 10:34:54;;;;;;;6.80;2.87;;;16.80;99.90;;;;;;5074222;28;20174;-65
2023/09/24 10:37:30;;;;;;;9.57;2.60;;;16.80;99.90;;;;;;5074125;28;20131;-65
2023/09/24 10:40:05;;;;;;;10.33;3.23;;;16.80;99.90;;;;;;5074104;28;20097;-65
2023/09/24 10:42:37;;;;;;;7.43;2.35;;;16.80;99.90;;;;;;5074135;28;20055;-65
2023/09/24 10:45:15;;;;;;;11.03;2.60;;;16.80;99.90;;;;;;5074007;28;20121;-65
2023/09/24 10:47:44;;;;;;;6.57;2.60;;;16.80;99.90;;;;;;5074526;28;20048;-65
2023/09/24 10:50:18;;;;;;;9.30;2.87;;;16.90;99.90;;;;;;5073819;28;20088;-65
2023/09/24 10:52:59;;;;;;;8.60;2.80;;;16.90;99.90;;;;;;5073231;28;20397;-65
2023/09/24 10:55:31;;;;;;;9.30;3.23;;;16.90;99.90;;;;;;5074420;28;20045;-65
2023/09/24 10:58:00;;;;;;;7.90;3.03;;;16.90;99.90;;;;;;5074609;28;20048;-65
2023/09/24 11:00:27;;;;;;;8.43;2.60;;;17.00;99.90;;;;;;5073767;28;20427;-65
2023/09/24 11:03:04;;;;;;;6.93;2.80;;;17.00;99.90;;;;;;5073706;28;20090;-65
2023/09/24 11:05:44;;;;;;;6.93;2.30;;;17.00;99.90;;;;;;5073817;28;20534;-65
2023/09/24 11:08:11;;;;;;;7.27;2.30;;;17.00;99.90;;;;;;5073599;28;20048;-65
2023/09/24 11:10:37;;;;;;;8.47;3.00;;;17.10;99.90;;;;;;5074650;28;20369;-66
2023/09/24 11:13:05;;;;;;;6.57;2.73;;;17.10;99.90;;;;;;5072585;28;20036;-66
2023/09/24 11:15:36;;;;;;;7.23;2.57;;;17.10;99.90;;;;;;5073589;28;20057;-65
2023/09/24 11:18:02;;;;;;;6.33;2.53;;;17.10;99.90;;;;;;5073561;28;20496;-65
2023/09/24 11:20:31;;;;;;;6.30;2.43;;;17.20;99.90;;;;;;5073635;28;20058;-65
2023/09/24 11:22:59;;;;;;;7.03;2.20;;;17.30;99.90;;;;;;5073533;28;20052;-65
2023/09/24 11:25:26;;;;;;;6.73;2.53;;;17.40;99.90;;;;;;5073430;28;20097;-65
2023/09/24 11:27:54;;;;;;;6.27;2.07;;;17.40;99.90;;;;;;5073501;28;20040;-65
2023/09/24 11:30:22;;;;;;;6.67;2.77;;;17.40;99.90;;;;;;5073427;28;20040;-65
2023/09/24 11:32:50;;;;;;;6.90;2.53;;;17.50;99.90;;;;;;5072758;28;20068;-65
2023/09/24 11:35:21;;;;;;;8.10;2.43;;;17.50;99.90;;;;;;5073356;28;20074;-65
2023/09/24 11:37:59;;;;;;;8.53;2.80;;;17.60;99.90;;;;;;5073569;28;20499;-65
2023/09/24 11:40:41;;;;;;;5.70;2.60;;;17.70;99.90;;;;;;5073381;28;20130;-66
2023/09/24 11:43:15;;;;;;;6.30;2.20;;;17.70;99.90;;;;;;5077069;28;20055;-66
2023/09/24 11:45:42;;;;;;;8.60;2.28;;;17.70;99.90;;;;;;5077522;28;20048;-65
2023/09/24 11:48:13;;;;;;;6.03;2.27;;;17.80;99.90;;;;;;5078136;28;20102;-66
2023/09/24 11:50:50;;;;;;;6.97;2.00;;;17.80;99.90;;;;;;5077313;28;20049;-65
2023/09/24 11:53:20;;;;;;;7.03;2.03;;;17.80;99.90;;;;;;5077365;28;20106;-65
2023/09/24 11:55:50;;;;;;;5.50;2.23;;;17.70;99.90;;;;;;5077611;28;20048;-65
2023/09/24 11:58:17;;;;;;;5.97;2.20;;;17.70;99.90;;;;;;5077514;28;20450;-66
2023/09/24 12:00:44;;;;;;;6.73;2.20;;;17.60;99.90;;;;;;5076238;28;20067;-66
2023/09/24 12:03:11;;;;;;;9.23;2.47;;;17.60;99.90;;;;;;5077159;28;20049;-66
2023/09/24 12:05:37;;;;;;;8.33;2.43;;;17.60;99.90;;;;;;5077258;28;20053;-65
2023/09/24 12:08:05;;;;;;;5.87;1.90;;;17.50;99.90;;;;;;5075642;28;20113;-66
2023/09/24 12:10:33;;;;;;;6.43;2.00;;;17.50;99.90;;;;;;5076913;28;20168;-66
2023/09/24 12:13:01;;;;;;;6.73;2.70;;;17.60;99.90;;;;;;5077030;28;20048;-66
2023/09/24 12:15:31;;;;;;;7.50;1.87;;;17.60;99.90;;;;;;5059582;28;20140;-66
2023/09/24 12:17:58;;;;;;;5.47;1.70;;;17.60;99.90;;;;;;5076880;28;20404;-66
2023/09/24 12:20:25;;;;;;;6.97;2.10;;;17.60;99.90;;;;;;5076632;28;20109;-66
2023/09/24 12:22:51;;;;;;;7.67;2.47;;;17.60;99.90;;;;;;5077169;28;20056;-66
2023/09/24 12:25:17;;;;;;;5.90;2.20;;;17.60;99.90;;;;;;5076593;28;20055;-67
2023/09/24 12:27:42;;;;;;;6.10;2.20;;;17.50;99.90;;;;;;5076577;28;20047;-66
2023/09/24 12:30:12;;;;;;;6.80;1.73;;;17.50;99.90;;;;;;5076511;28;20182;-66
2023/09/24 12:32:41;;;;;;;11.07;2.13;;;17.50;99.90;;;;;;5076513;28;20503;-66
2023/09/24 12:35:08;;;;;;;5.97;2.20;;;17.50;99.90;;;;;;5076498;28;20051;-66
2023/09/24 12:37:35;;;;;;;6.20;1.90;;;17.50;99.90;;;;;;5076471;28;20102;-66
2023/09/24 12:40:10;;;;;;;6.43;2.00;;;17.50;99.90;;;;;;5076341;28;20044;-66
2023/09/24 12:42:38;;;;;;;4.65;1.83;;;17.50;99.90;;;;;;5076333;28;20056;-66
2023/09/24 12:45:05;;;;;;;6.60;2.03;;;17.60;99.90;;;;;;5076828;28;20080;-67
2023/09/24 12:47:33;;;;;;;6.20;1.83;;;17.60;99.90;;;;;;5076266;28;20458;-68